createdAt,value
2022-08-26T00:02:56.072Z,11.02
2022-08-26T00:07:59.263Z,11.15
2022-08-26T00:13:05.660Z,11.05
2022-08-26T00:18:16.849Z,11.20
2022-08-26T00:23:28.962Z,10.23
2022-08-26T00:28:43.307Z,11.02
2022-08-26T00:33:47.874Z,9.80
2022-08-26T00:38:53.674Z,10.38
2022-08-26T00:49:13.416Z,11.13
2022-08-26T00:54:27.047Z,11.25
2022-08-26T00:59:34.672Z,11.70
2022-08-26T01:04:39.830Z,11.18
2022-08-26T01:09:44.517Z,11.32
2022-08-26T01:14:50.524Z,10.73
2022-08-26T01:20:02.148Z,11.98
2022-08-26T01:25:22.853Z,11.30
2022-08-26T01:30:26.667Z,10.73
2022-08-26T01:35:32.575Z,11.18
2022-08-26T01:41:01.313Z,12.40
2022-08-26T01:46:20.152Z,11.30
2022-08-26T01:51:28.459Z,11.65
2022-08-26T01:56:55.830Z,11.57
2022-08-26T02:02:18.251Z,12.13
2022-08-26T02:07:28.451Z,12.60
2022-08-26T02:12:41.216Z,11.82
2022-08-26T02:17:47.696Z,10.23
2022-08-26T02:22:50.607Z,11.73
2022-08-26T02:28:13.108Z,12.33
2022-08-26T02:33:16.995Z,11.77
2022-08-26T02:43:36.772Z,12.38
2022-08-26T02:48:49.760Z,11.85
2022-08-26T02:53:53.094Z,12.63
2022-08-26T02:59:24.392Z,12.77
2022-08-26T03:04:34.306Z,12.75
2022-08-26T03:09:37.076Z,13.15
2022-08-26T03:14:47.515Z,12.98
2022-08-26T03:19:57.251Z,12.95
2022-08-26T03:30:46.677Z,12.50
2022-08-26T03:36:07.421Z,11.95
2022-08-26T03:41:11.149Z,13.18
2022-08-26T03:46:16.482Z,12.38
2022-08-26T03:51:20.563Z,11.88
2022-08-26T03:56:23.793Z,11.80
2022-08-26T04:01:31.189Z,12.38
2022-08-26T04:06:39.066Z,12.20
2022-08-26T04:11:43.550Z,12.70
2022-08-26T04:16:49.039Z,12.00
2022-08-26T04:21:53.891Z,11.93
2022-08-26T04:26:58.053Z,12.20
2022-08-26T04:32:03.053Z,12.30
2022-08-26T04:37:06.410Z,13.30
2022-08-26T04:47:13.892Z,11.93
2022-08-26T04:57:19.567Z,12.73
2022-08-26T05:02:26.302Z,12.43
2022-08-26T05:07:29.685Z,13.57
2022-08-26T05:12:35.138Z,12.00
2022-08-26T05:17:39.157Z,15.63
2022-08-26T05:22:42.741Z,13.48
2022-08-26T05:27:45.600Z,12.82
2022-08-26T05:32:53.604Z,12.82
2022-08-26T05:37:57.916Z,12.80
2022-08-26T05:43:00.724Z,13.57
2022-08-26T05:48:08.885Z,14.27
2022-08-26T05:53:15.074Z,13.57
2022-08-26T05:58:24.170Z,14.82
2022-08-26T06:03:28.791Z,16.70
2022-08-26T06:08:33.929Z,15.38
2022-08-26T06:13:38.928Z,14.20
2022-08-26T06:18:45.069Z,15.18
2022-08-26T06:24:08.494Z,14.98
2022-08-26T06:29:16.408Z,17.73
2022-08-26T06:34:30.680Z,16.10
2022-08-26T06:39:33.482Z,16.95
2022-08-26T06:44:35.998Z,20.42
2022-08-26T06:49:40.154Z,18.67
2022-08-26T06:54:43.190Z,17.20
2022-08-26T06:59:46.888Z,18.73
2022-08-26T07:04:51.073Z,18.75
2022-08-26T07:09:54.427Z,17.10
2022-08-26T07:14:57.254Z,17.75
2022-08-26T07:20:03.206Z,18.08
2022-08-26T07:25:09.661Z,19.23
2022-08-26T07:30:14.914Z,15.45
2022-08-26T07:35:18.829Z,16.95
2022-08-26T07:40:22.166Z,16.55
2022-08-26T07:45:25.117Z,17.13
2022-08-26T07:50:47.085Z,16.58
2022-08-26T08:00:55.098Z,16.58
2022-08-26T08:05:59.363Z,16.75
2022-08-26T08:11:02.746Z,18.48
2022-08-26T08:16:05.957Z,18.17
2022-08-26T08:21:22.074Z,17.38
2022-08-26T08:26:28.037Z,16.40
2022-08-26T08:31:55.978Z,18.35
2022-08-26T08:36:57.114Z,18.25
2022-08-26T08:42:28.039Z,17.83
2022-08-26T08:47:35.629Z,17.33
2022-08-26T08:52:42.197Z,16.00
2022-08-26T08:58:02.145Z,16.65
2022-08-26T09:03:18.712Z,16.23
2022-08-26T09:08:28.511Z,14.80
2022-08-26T09:13:31.788Z,16.55
2022-08-26T09:18:48.050Z,16.17
2022-08-26T09:23:54.045Z,15.48
2022-08-26T09:28:59.739Z,14.93
2022-08-26T09:34:17.810Z,16.80
2022-08-26T09:39:31.496Z,15.43
2022-08-26T09:44:35.777Z,14.40
2022-08-26T09:49:39.981Z,13.77
2022-08-26T09:54:58.265Z,14.80
2022-08-26T10:00:01.729Z,14.02
2022-08-26T10:05:10.191Z,14.63
2022-08-26T10:10:19.005Z,13.13
2022-08-26T10:15:23.141Z,13.85
2022-08-26T10:20:32.018Z,12.52
2022-08-26T10:25:43.251Z,11.45
2022-08-26T10:30:50.591Z,12.77
2022-08-26T10:35:56.836Z,9.32
2022-08-26T10:41:09.824Z,8.70
2022-08-26T10:46:18.497Z,10.13
2022-08-26T10:51:25.411Z,9.90
2022-08-26T10:56:44.423Z,9.73
2022-08-26T11:01:54.798Z,9.75
2022-08-26T11:07:37.292Z,9.93
2022-08-26T11:12:56.634Z,10.77
2022-08-26T11:18:02.031Z,9.30
2022-08-26T11:23:40.392Z,9.90
2022-08-26T11:28:48.302Z,8.93
2022-08-26T11:33:53.024Z,10.40
2022-08-26T11:38:57.209Z,8.35
2022-08-26T11:44:02.327Z,8.20
2022-08-26T11:49:07.851Z,9.45
2022-08-26T11:54:12.409Z,8.80
2022-08-26T11:59:23.817Z,8.75
2022-08-26T12:04:30.047Z,8.20
2022-08-26T12:09:35.658Z,7.85
2022-08-26T12:14:39.742Z,8.27
2022-08-26T12:19:42.741Z,8.60
2022-08-26T12:24:50.494Z,8.20
2022-08-26T12:30:12.240Z,7.88
2022-08-26T12:35:17.365Z,8.80
2022-08-26T12:40:28.895Z,9.07
2022-08-26T12:45:35.489Z,8.65
2022-08-26T12:50:40.169Z,9.43
2022-08-26T12:55:45.434Z,10.32
2022-08-26T13:00:51.193Z,11.60
2022-08-26T13:05:53.868Z,9.40
2022-08-26T13:11:05.620Z,9.32
2022-08-26T13:16:09.564Z,10.15
2022-08-26T13:21:17.028Z,10.27
2022-08-26T13:26:20.121Z,7.93
2022-08-26T13:31:26.972Z,8.27
2022-08-26T13:36:30.292Z,6.90
2022-08-26T13:41:33.112Z,7.03
2022-08-26T13:46:37.547Z,6.97
2022-08-26T13:51:40.365Z,6.38
2022-08-26T13:56:42.936Z,5.43
2022-08-26T14:01:46.889Z,4.63
2022-08-26T14:06:49.609Z,4.75
2022-08-26T14:11:54.359Z,4.97
2022-08-26T14:17:00.436Z,5.10
2022-08-26T14:22:05.087Z,5.95
2022-08-26T14:27:07.829Z,5.72
2022-08-26T14:32:21.020Z,5.53
2022-08-26T14:37:33.571Z,6.32
2022-08-26T14:42:37.202Z,5.05
2022-08-26T14:47:50.987Z,4.25
2022-08-26T14:53:11.290Z,4.47
2022-08-26T14:58:13.864Z,4.35
2022-08-26T15:08:23.034Z,5.70
2022-08-26T15:13:30.935Z,6.78
2022-08-26T15:18:35.173Z,6.07
2022-08-26T15:23:39.323Z,5.60
2022-08-26T15:28:42.515Z,5.95
2022-08-26T15:33:47.124Z,5.75
2022-08-26T15:38:49.659Z,6.15
2022-08-26T15:43:53.014Z,6.20
2022-08-26T15:48:56.839Z,7.03
2022-08-26T15:54:00.020Z,6.35
2022-08-26T15:59:03.661Z,6.03
2022-08-26T16:04:09.039Z,7.05
2022-08-26T16:09:15.249Z,6.53
2022-08-26T16:14:18.102Z,6.00
2022-08-26T16:19:22.565Z,6.20
2022-08-26T16:24:30.251Z,6.03
2022-08-26T16:29:33.081Z,5.18
2022-08-26T16:34:37.186Z,6.40
2022-08-26T16:39:49.714Z,5.63
2022-08-26T16:44:52.450Z,5.47
2022-08-26T16:49:56.559Z,5.20
2022-08-26T16:54:59.620Z,5.72
2022-08-26T17:00:05.863Z,5.70
2022-08-26T17:05:11.731Z,5.40
2022-08-26T17:10:14.595Z,5.25
2022-08-26T17:15:18.267Z,5.23
2022-08-26T17:25:29.085Z,6.07
2022-08-26T17:30:31.885Z,6.30
2022-08-26T17:35:36.152Z,6.33
2022-08-26T17:40:38.706Z,6.93
2022-08-26T17:45:41.829Z,6.85
2022-08-26T17:50:49.692Z,7.82
2022-08-26T17:55:53.036Z,9.85
2022-08-26T18:00:56.856Z,8.90
2022-08-26T18:06:00.674Z,9.85
2022-08-26T18:11:03.586Z,7.70
2022-08-26T18:16:07.600Z,7.80
2022-08-26T18:21:15.642Z,8.60
2022-08-26T18:26:19.800Z,7.35
2022-08-26T18:31:22.424Z,7.68
2022-08-26T18:36:28.471Z,8.18
2022-08-26T18:41:34.286Z,9.18
2022-08-26T18:46:37.022Z,9.05
2022-08-26T18:51:41.896Z,9.40
2022-08-26T18:56:44.608Z,9.65
2022-08-26T19:01:50.519Z,11.38
2022-08-26T19:06:54.976Z,21.15
2022-08-26T19:11:57.544Z,12.55
2022-08-26T19:17:01.453Z,14.20
2022-08-26T19:22:05.592Z,12.35
2022-08-26T19:27:14.572Z,12.82
2022-08-26T19:32:17.994Z,9.65
2022-08-26T19:37:21.931Z,10.93
2022-08-26T19:42:24.395Z,13.43
2022-08-26T19:47:28.058Z,12.52
2022-08-26T19:52:31.967Z,12.23
2022-08-26T19:57:34.682Z,11.63
2022-08-26T20:02:37.254Z,14.23
2022-08-26T20:07:41.877Z,13.60
2022-08-26T20:12:44.359Z,12.48
2022-08-26T20:17:46.915Z,14.50
2022-08-26T20:22:53.274Z,16.75
2022-08-26T20:27:55.730Z,11.20
2022-08-26T20:32:58.229Z,11.00
2022-08-26T20:38:02.020Z,9.95
2022-08-26T20:48:08.572Z,10.40
2022-08-26T20:53:13.088Z,10.77
2022-08-26T20:58:15.839Z,10.98
2022-08-26T21:03:18.318Z,10.63
2022-08-26T21:08:22.168Z,10.93
2022-08-26T21:18:27.094Z,10.13
2022-08-26T21:23:30.925Z,10.90
2022-08-26T21:33:39.321Z,16.52
2022-08-26T21:38:43.441Z,14.50
2022-08-26T21:43:46.486Z,11.43
2022-08-26T21:48:51.175Z,12.37
2022-08-26T21:53:55.487Z,12.63
2022-08-26T21:58:58.955Z,13.75
2022-08-26T22:04:03.762Z,11.07
2022-08-26T22:09:07.620Z,10.52
2022-08-26T22:19:13.448Z,11.02
2022-08-26T22:24:23.136Z,9.27
2022-08-26T22:29:27.386Z,8.98
2022-08-26T22:34:29.895Z,8.48
2022-08-26T22:39:34.157Z,8.60
2022-08-26T22:44:37.581Z,8.73
2022-08-26T22:49:40.120Z,9.75
2022-08-26T22:54:43.972Z,8.07
2022-08-26T23:04:49.984Z,8.40
2022-08-26T23:09:53.805Z,7.43
2022-08-26T23:19:59.103Z,7.05
2022-08-26T23:25:03.036Z,6.57
2022-08-26T23:30:14.663Z,7.95
2022-08-26T23:35:21.440Z,7.95
2022-08-26T23:40:28.346Z,9.30
2022-08-26T23:45:31.793Z,8.60
2022-08-26T23:50:52.480Z,8.85
2022-08-26T23:55:56.493Z,8.25
